Time;durP1;ratioP1;P1;durP2;ratioP2;P2;SDS_P1;SDS_P2;PMS_P1;PMS_P2;Temp;Humidity;BMP_temperature;BMP_pressure;BME280_temperature;BME280_humidity;BME280_pressure;Samples;Min_cycle;Max_cycle;Signal;HPM_P1;HPM_P2
2022/03/30 00:00:35;;;;;;;;;;;;;;;4.68;87.05;98428.50;4926040;29;19969;-89
2022/03/30 00:03:01;;;;;;;;;;;;;;;4.67;86.86;98435.50;4922798;29;20363;-92
2022/03/30 00:05:29;;;;;;;;;;;;;;;4.68;86.41;98436.38;4933089;29;20260;-91
2022/03/30 00:07:54;;;;;;;;;;;;;;;4.67;86.13;98427.63;4929186;29;19923;-90
2022/03/30 00:10:20;;;;;;;;;;;;;;;4.71;85.94;98423.13;4928801;29;19969;-90
2022/03/30 00:12:46;;;;;;;;;;;;;;;4.73;85.82;98423.91;4927696;29;19919;-92
2022/03/30 00:15:11;;;;;;;;;;;;;;;4.73;85.76;98422.13;4925492;29;19919;-87
2022/03/30 00:17:36;;;;;;;;;;;;;;;4.77;85.77;98415.00;4929368;29;20371;-91
2022/03/30 00:20:03;;;;;;;;;;;;;;;4.79;85.84;98412.31;4920172;29;20402;-87
2022/03/30 00:22:28;;;;;;;;;;;;;;;4.80;85.89;98414.84;4924065;29;19962;-90
2022/03/30 03:33:30;;;;;;;;;;;;;;;6.51;100.00;98230.97;5706526;23;20022;-91
2022/03/30 03:35:56;;;;;;;;;;;;;;;6.52;100.00;98232.66;4962137;28;19930;-87
2022/03/30 03:38:24;;;;;;;;;;;;;;;6.56;100.00;98222.84;4947001;29;19923;-91
2022/03/30 03:40:50;;;;;;;;;;;;;;;6.57;100.00;98218.44;4946631;29;20477;-88
2022/03/30 03:43:16;;;;;;;;;;;;;;;6.57;100.00;98216.66;4947074;29;19918;-85
2022/03/30 03:45:41;;;;;;;;;;;;;;;6.60;100.00;98213.00;4947402;29;19923;-94
2022/03/30 03:48:06;;;;;;;;;;;;;;;6.60;100.00;98213.84;4945217;29;19927;-93
2022/03/30 03:50:42;;;;;;;;;;;;;;;;;;;;;
2022/03/30 03:53:31;;;;;;;;;;;;;;;6.63;100.00;98213.69;4946685;29;19918;-94
2022/03/30 03:55:56;;;;;;;;;;;;;;;6.63;100.00;98213.69;4945413;29;19919;-89
2022/03/30 03:58:21;;;;;;;;;;;;;;;5.01;100.00;98215.34;4946932;29;19925;-90
2022/03/30 04:00:47;;;;;;;;;;;;;;;3.88;100.00;98216.69;4946177;29;20009;-91
2022/03/30 04:03:12;;;;;;;;;;;;;;;3.51;100.00;98226.00;4946753;29;20001;-90
2022/03/30 04:05:37;;;;;;;;;;;;;;;3.18;100.00;98215.94;4947133;29;20374;-93
2022/03/30 04:08:03;;;;;;;;;;;;;;;3.04;100.00;98213.84;4947162;29;20394;-91
2022/03/30 04:10:28;;;;;;;;;;;;;;;2.91;100.00;98214.28;4947629;28;19923;-86
2022/03/30 04:12:54;;;;;;;;;;;;;;;2.83;100.00;98207.63;4945886;29;19927;-86
2022/03/30 04:15:19;;;;;;;;;;;;;;;2.70;100.00;98212.47;4946879;29;20013;-92
2022/03/30 04:17:45;;;;;;;;;;;;;;;2.62;100.00;98212.72;4946236;29;20378;-86
2022/03/30 04:20:12;;;;;;;;;;;;;;;2.54;100.00;98215.59;4945690;29;19926;-86
2022/03/30 04:22:37;;;;;;;;;;;;;;;2.42;100.00;98199.50;4944703;29;20430;-92
2022/03/30 04:25:04;;;;;;;;;;;;;;;2.37;100.00;98204.88;4947329;28;20025;-94
2022/03/30 04:27:29;;;;;;;;;;;;;;;2.32;100.00;98199.81;4946936;29;19918;-85
2022/03/30 04:29:55;;;;;;;;;;;;;;;2.25;100.00;98200.94;4944924;29;19923;-93
2022/03/30 04:32:20;;;;;;;;;;;;;;;2.10;100.00;98202.31;4945460;29;19926;-85
2022/03/30 04:34:45;;;;;;;;;;;;;;;2.07;100.00;98204.19;4945225;28;20430;-85
2022/03/30 04:37:11;;;;;;;;;;;;;;;1.99;100.00;98202.69;4946518;29;20010;-91
2022/03/30 08:00:39;;;;;;;;;;;;;;;3.20;88.87;98188.78;4931665;28;19933;-85
2022/03/30 08:03:05;;;;;;;;;;;;;;;3.23;88.58;98193.06;4947689;29;19923;-85
2022/03/30 08:05:30;;;;;;;;;;;;;;;3.23;88.19;98193.06;4945745;29;19926;-88
2022/03/30 08:07:55;;;;;;;;;;;;;;;3.25;87.77;98199.06;4947935;29;19938;-88
2022/03/30 08:10:20;;;;;;;;;;;;;;;3.28;87.42;98199.78;4948220;29;19945;-87
2022/03/30 08:12:47;;;;;;;;;;;;;;;3.28;87.08;98205.03;4945052;29;19945;-87
2022/03/30 08:15:15;;;;;;;;;;;;;;;6.20;93.95;98196.63;4945215;29;20070;-88
2022/03/30 08:17:42;;;;;;;;;;;;;;;5.11;92.09;98198.28;4947423;29;19919;-88
2022/03/30 08:20:08;;;;;;;;;;;;;;;6.80;98.41;98201.47;4944644;28;19922;-78
2022/03/30 08:22:38;;;;;;;;;;;;;;;7.51;100.00;98200.28;4946288;28;20025;-90
2022/03/30 08:25:07;;;;;;;;;;;;;;;6.47;99.80;98197.00;4946960;29;20290;-91
2022/03/30 08:27:35;;;;;;;;;;;;;;;6.40;100.00;98198.25;4953551;29;19958;-91
2022/03/30 08:30:03;;;;;;;;;;;;;;;6.80;100.00;98189.13;4949190;29;20009;-93
2022/03/30 08:32:28;;;;;;;;;;;;;;;7.27;100.00;98192.78;4951701;29;20069;-90
2022/03/30 08:34:54;;;;;;;;;;;;;;;6.33;100.00;98187.19;4946988;29;20436;-83
2022/03/30 08:37:20;;;;;;;;;;;;;;;4.98;100.00;98187.50;4945706;29;20330;-88
2022/03/30 08:39:45;;;;;;;;;;;;;;;4.45;100.00;98196.84;4946431;29;19969;-86
2022/03/30 08:42:11;;;;;;;;;;;;;;;4.12;100.00;98197.34;4946794;28;19918;-85
2022/03/30 08:44:37;;;;;;;;;;;;;;;3.99;100.00;98196.16;4948222;29;20296;-88
2022/03/30 08:47:03;;;;;;;;;;;;;;;3.75;100.00;98201.47;4947477;29;19918;-85
2022/03/30 08:49:33;;;;;;;;;;;;;;;3.64;100.00;98198.44;4948399;29;19929;-86
2022/03/30 08:51:59;;;;;;;;;;;;;;;3.52;100.00;98212.00;4949239;29;20013;-89
2022/03/30 08:54:24;;;;;;;;;;;;;;;3.50;100.00;98214.69;4947093;29;20356;-90
2022/03/30 08:56:50;;;;;;;;;;;;;;;3.75;98.29;98209.34;4946064;29;20390;-86
2022/03/30 08:59:17;;;;;;;;;;;;;;;3.74;96.24;98207.63;4947317;29;19931;-92
2022/03/30 09:01:44;;;;;;;;;;;;;;;3.63;94.63;98210.66;4945926;29;20408;-84
2022/03/30 09:04:12;;;;;;;;;;;;;;;3.59;93.82;98221.31;4943081;29;19973;-89
2022/03/30 09:06:41;;;;;;;;;;;;;;;3.58;92.97;98217.84;4943389;29;19977;-84
2022/03/30 09:09:06;;;;;;;;;;;;;;;3.52;92.27;98218.09;4945089;29;19938;-84
2022/03/30 09:11:41;;;;;;;;;;;;;;;3.59;91.30;98222.19;4943773;29;19926;-84
2022/03/30 09:14:07;;;;;;;;;;;;;;;3.63;90.74;98228.16;4947278;29;19974;-89
2022/03/30 09:16:39;;;;;;;;;;;;;;;3.52;90.54;98228.56;4944496;29;19926;-92
2022/03/30 09:19:06;;;;;;;;;;;;;;;3.56;89.90;98224.94;4945791;29;19927;-88
2022/03/30 09:21:43;;;;;;;;;;;;;;;3.56;89.58;98224.94;4945195;29;19924;-91
2022/03/30 09:24:09;;;;;;;;;;;;;;;3.42;89.51;98228.06;4945074;29;20290;-86
2022/03/30 09:26:34;;;;;;;;;;;;;;;3.47;89.27;98229.69;4947242;29;19930;-91
2022/03/30 09:29:01;;;;;;;;;;;;;;;3.47;89.00;98225.28;4944042;29;19929;-85
2022/03/30 09:31:27;;;;;;;;;;;;;;;3.40;89.27;98224.66;4944811;28;19922;-87
2022/03/30 09:33:53;;;;;;;;;;;;;;;3.38;89.20;98226.50;4943600;29;20074;-84
2022/03/30 09:36:32;;;;;;;;;;;;;;;3.42;88.62;98227.22;4945272;28;20034;-88
2022/03/30 09:38:57;;;;;;;;;;;;;;;3.42;88.38;98227.22;4953192;29;20386;-85
2022/03/30 09:41:23;;;;;;;;;;;;;;;3.32;88.27;98225.88;4943804;29;19949;-89
2022/03/30 09:43:48;;;;;;;;;;;;;;;3.27;87.75;98229.53;4942571;29;20377;-89
2022/03/30 09:46:15;;;;;;;;;;;;;;;3.29;87.57;98229.47;4946344;29;19926;-86
2022/03/30 09:48:49;;;;;;;;;;;;;;;3.28;87.05;98227.75;4946169;28;19922;-90
2022/03/30 09:51:19;;;;;;;;;;;;;;;3.30;87.08;98228.53;4943824;29;19930;-90
2022/03/30 09:53:45;;;;;;;;;;;;;;;3.34;86.94;98230.16;4945145;28;19923;-90
2022/03/30 09:56:18;;;;;;;;;;;;;;;3.31;86.46;98229.41;4945775;29;19982;-85
2022/03/30 09:58:44;;;;;;;;;;;;;;;3.34;86.03;98226.69;4945882;28;20417;-85
2022/03/30 10:01:21;;;;;;;;;;;;;;;3.23;86.17;98227.09;4942585;29;20021;-85
2022/03/30 10:03:49;;;;;;;;;;;;;;;3.21;86.34;98226.28;4945834;29;19929;-89
2022/03/30 10:06:15;;;;;;;;;;;;;;;3.28;86.24;98228.59;4946386;29;20021;-85
2022/03/30 10:08:42;;;;;;;;;;;;;;;3.29;85.46;98229.47;4944879;28;20378;-87
2022/03/30 10:11:09;;;;;;;;;;;;;;;3.35;85.30;98223.13;4945386;28;20022;-84
2022/03/30 10:13:34;;;;;;;;;;;;;;;3.27;85.16;98220.81;4943740;28;19923;-85
2022/03/30 10:16:00;;;;;;;;;;;;;;;3.30;84.99;98220.69;4943977;28;20362;-89
2022/03/30 10:18:29;;;;;;;;;;;;;;;3.28;84.85;98225.13;4945259;29;20117;-88
2022/03/30 10:21:22;;;;;;;;;;;;;;;3.30;85.12;98222.47;4943600;29;19923;-85
2022/03/30 10:23:47;;;;;;;;;;;;;;;3.19;84.47;98223.75;4926220;28;19919;-84
2022/03/30 10:26:22;;;;;;;;;;;;;;;3.17;84.38;98216.84;4945406;29;19977;-84
2022/03/30 10:28:55;;;;;;;;;;;;;;;3.15;84.52;98224.75;4942954;29;20367;-84
2022/03/30 10:31:22;;;;;;;;;;;;;;;3.08;84.18;98213.66;4943812;29;19977;-83
2022/03/30 10:33:47;;;;;;;;;;;;;;;3.09;84.32;98219.75;4944257;28;19923;-90
2022/03/30 10:36:21;;;;;;;;;;;;;;;3.08;84.27;98218.91;4946132;29;19922;-88
2022/03/30 10:39:24;;;;;;;;;;;;;;;3.17;84.19;98216.84;4945047;29;19926;-83
2022/03/30 10:41:50;;;;;;;;;;;;;;;3.18;83.73;98223.78;4914074;29;19926;-86
2022/03/30 10:44:35;;;;;;;;;;;;;;;3.09;83.59;98219.75;4943983;28;19933;-84
2022/03/30 10:47:06;;;;;;;;;;;;;;;3.03;83.95;98215.59;4944526;28;19964;-88
2022/03/30 10:49:51;;;;;;;;;;;;;;;3.08;83.42;98216.28;4943699;29;20383;-86
2022/03/30 10:52:25;;;;;;;;;;;;;;;3.08;83.29;98213.66;4944324;29;19985;-85
2022/03/30 10:54:55;;;;;;;;;;;;;;;3.08;83.27;98212.81;4944167;29;19926;-89
2022/03/30 10:57:39;;;;;;;;;;;;;;;2.97;83.08;98213.22;4942535;28;20428;-84
2022/03/30 11:00:05;;;;;;;;;;;;;;;3.07;82.78;98211.94;4949991;28;20298;-84
2022/03/30 11:02:40;;;;;;;;;;;;;;;2.95;82.60;98204.53;4942400;29;19922;-83
2022/03/30 11:05:09;;;;;;;;;;;;;;;2.92;82.66;98204.69;4944177;29;20434;-84
2022/03/30 11:07:35;;;;;;;;;;;;;;;2.90;82.91;98209.09;4942734;29;20395;-88
2022/03/30 11:10:13;;;;;;;;;;;;;;;2.90;82.80;98206.47;4943535;29;20006;-84
2022/03/30 11:12:57;;;;;;;;;;;;;;;2.96;83.08;98202.81;4942671;29;19961;-84
2022/03/30 11:15:22;;;;;;;;;;;;;;;2.97;82.73;98207.09;4943194;29;19941;-86
2022/03/30 11:17:47;;;;;;;;;;;;;;;2.96;82.73;98198.41;4944722;28;20329;-84
2022/03/30 11:20:14;;;;;;;;;;;;;;;2.87;82.63;98204.84;4942777;28;20363;-88
2022/03/30 11:22:44;;;;;;;;;;;;;;;2.93;82.45;98195.91;4942205;29;20370;-90
2022/03/30 11:25:19;;;;;;;;;;;;;;;2.89;82.46;98192.56;4944386;29;19923;-86
2022/03/30 11:28:05;;;;;;;;;;;;;;;2.86;82.15;98189.22;4941761;29;20272;-86
2022/03/30 11:30:31;;;;;;;;;;;;;;;2.91;81.95;98189.88;4932064;29;19930;-84
2022/03/30 11:32:58;;;;;;;;;;;;;;;2.94;82.24;98181.94;4941892;29;20361;-88
2022/03/30 11:35:26;;;;;;;;;;;;;;;2.87;81.99;98185.66;4942619;29;20438;-89
2022/03/30 11:37:54;;;;;;;;;;;;;;;2.84;81.82;98188.38;4943754;29;19926;-90
2022/03/30 11:40:21;;;;;;;;;;;;;;;2.86;81.45;98176.97;4958617;28;20277;-87
2022/03/30 11:42:47;;;;;;;;;;;;;;;2.81;81.67;98178.03;4940368;29;19919;-86
2022/03/30 11:45:19;;;;;;;;;;;;;;;2.78;81.47;98178.19;4943468;29;20283;-84
2022/03/30 11:48:02;;;;;;;;;;;;;;;2.75;81.59;98180.91;4943359;29;19923;-88
2022/03/30 11:50:28;;;;;;;;;;;;;;;2.76;81.54;98169.50;4959158;28;20370;-84
2022/03/30 11:53:07;;;;;;;;;;;;;;;2.68;81.44;98172.41;4939814;29;20017;-89
2022/03/30 11:55:35;;;;;;;;;;;;;;;2.64;81.00;98169.06;4944902;29;19918;-89
2022/03/30 11:58:01;;;;;;;;;;;;;;;2.68;80.97;98170.66;4944808;29;19919;-86
2022/03/30 12:00:27;;;;;;;;;;;;;;;2.65;80.56;98173.38;4945618;28;19969;-84
2022/03/30 12:02:56;;;;;;;;;;;;;;;2.60;80.87;98174.44;4947648;29;20010;-86
2022/03/30 12:05:22;;;;;;;;;;;;;;;3.17;84.12;98161.88;4947153;29;19923;-89
2022/03/30 12:07:51;;;;;;;;;;;;;;;2.89;82.83;98171.63;4948275;28;20263;-86
2022/03/30 12:10:16;;;;;;;;;;;;;;;2.82;82.26;98158.81;4946794;29;19919;-87
2022/03/30 12:12:42;;;;;;;;;;;;;;;2.76;81.71;98159.06;4945824;29;20461;-89
2022/03/30 12:15:12;;;;;;;;;;;;;;;2.67;81.50;98158.47;4945082;29;19918;-84
2022/03/30 12:17:39;;;;;;;;;;;;;;;2.67;81.22;98155.88;4945169;29;19927;-85
2022/03/30 12:20:05;;;;;;;;;;;;;;;2.64;80.99;98158.59;4945128;28;19938;-84
2022/03/30 12:22:31;;;;;;;;;;;;;;;2.68;81.27;98162.81;4944852;29;19929;-90
2022/03/30 12:24:57;;;;;;;;;;;;;;;2.70;81.38;98161.00;4946855;28;19938;-86
2022/03/30 12:27:22;;;;;;;;;;;;;;;2.69;81.57;98153.19;4944350;29;20297;-87
2022/03/30 12:29:48;;;;;;;;;;;;;;;2.76;81.58;98148.59;4948447;28;19949;-88
2022/03/30 12:32:15;;;;;;;;;;;;;;;2.67;81.15;98149.78;4945807;29;19923;-86
2022/03/30 12:34:41;;;;;;;;;;;;;;;2.64;80.95;98139.44;4945135;29;19927;-84
2022/03/30 12:37:08;;;;;;;;;;;;;;;2.66;80.77;98135.84;4946477;29;20369;-87
2022/03/30 12:39:38;;;;;;;;;;;;;;;2.64;80.95;98135.06;4944980;29;19925;-88
2022/03/30 12:42:04;;;;;;;;;;;;;;;2.65;80.77;98136.78;4943564;28;20006;-86
2022/03/30 12:44:31;;;;;;;;;;;;;;;2.69;80.86;98133.13;4946136;29;19927;-86
2022/03/30 12:46:58;;;;;;;;;;;;;;;2.68;80.55;98127.94;4944931;29;19923;-90
2022/03/30 12:49:33;;;;;;;;;;;;;;;2.69;81.10;98127.03;4944638;29;19926;-90
2022/03/30 12:52:05;;;;;;;;;;;;;;;2.86;84.90;98123.81;4946397;29;19919;-90
2022/03/30 12:54:30;;;;;;;;;;;;;;;2.87;88.16;98126.38;4946847;29;19950;-90
2022/03/30 12:56:55;;;;;;;;;;;;;;;2.95;90.55;98122.59;4944051;29;19927;-88
2022/03/30 12:59:24;;;;;;;;;;;;;;;2.98;94.68;98122.47;4944441;29;19969;-90
2022/03/30 13:01:50;;;;;;;;;;;;;;;3.44;99.92;98112.81;4945550;28;20005;-89
2022/03/30 13:04:18;;;;;;;;;;;;;;;3.82;100.00;98111.22;4943734;29;20699;-84
2022/03/30 13:07:22;;;;;;;;;;;;;;;4.21;100.00;98101.69;4945765;28;19926;-84
2022/03/30 13:10:04;;;;;;;;;;;;;;;4.60;100.00;98103.47;4896561;29;20299;-88
2022/03/30 13:12:39;;;;;;;;;;;;;;;4.82;100.00;98099.84;4952038;28;19933;-85
2022/03/30 13:15:06;;;;;;;;;;;;;;;4.96;100.00;98094.81;4951485;29;19919;-88
2022/03/30 13:17:32;;;;;;;;;;;;;;;5.09;100.00;98089.88;4944242;29;19934;-84
2022/03/30 13:19:59;;;;;;;;;;;;;;;5.19;100.00;98082.41;4944179;29;20294;-89
2022/03/30 13:22:24;;;;;;;;;;;;;;;5.32;100.00;98074.78;4944356;28;19922;-84
2022/03/30 13:24:52;;;;;;;;;;;;;;;5.36;100.00;98071.94;4945024;29;19927;-84
2022/03/30 13:27:17;;;;;;;;;;;;;;;5.43;100.00;98067.22;4960225;28;19981;-88
2022/03/30 13:29:42;;;;;;;;;;;;;;;5.51;100.00;98072.94;4942948;29;20378;-85
2022/03/30 13:32:08;;;;;;;;;;;;;;;5.56;100.00;98062.19;4944113;29;19922;-84
2022/03/30 13:34:33;;;;;;;;;;;;;;;5.61;100.00;98066.28;4943555;29;19919;-85
2022/03/30 13:36:58;;;;;;;;;;;;;;;5.67;100.00;98064.31;4945254;29;19927;-85
2022/03/30 13:39:24;;;;;;;;;;;;;;;5.70;100.00;98058.91;4943372;29;19927;-83
2022/03/30 13:41:50;;;;;;;;;;;;;;;5.73;100.00;98064.00;4941704;29;19969;-84
2022/03/30 13:44:17;;;;;;;;;;;;;;;5.80;100.00;98060.13;4943150;29;19922;-86
2022/03/30 13:46:46;;;;;;;;;;;;;;;5.83;100.00;98060.81;4943557;28;19946;-89
2022/03/30 13:49:11;;;;;;;;;;;;;;;5.88;100.00;98060.56;4943350;29;19922;-89
2022/03/30 13:51:37;;;;;;;;;;;;;;;5.92;100.00;98067.38;4943394;29;19923;-87
2022/03/30 13:54:03;;;;;;;;;;;;;;;5.94;100.00;98068.16;4942612;29;19918;-87
2022/03/30 13:56:29;;;;;;;;;;;;;;;5.98;100.00;98066.22;4942288;29;20366;-86
2022/03/30 13:58:55;;;;;;;;;;;;;;;6.02;100.00;98059.06;4942706;29;19980;-84
2022/03/30 14:01:21;;;;;;;;;;;;;;;6.02;100.00;98054.63;4944031;29;19962;-84
2022/03/30 14:03:47;;;;;;;;;;;;;;;6.04;100.00;98054.56;4945203;28;19927;-87
2022/03/30 14:06:12;;;;;;;;;;;;;;;6.07;100.00;98046.50;4943025;29;20425;-89
2022/03/30 14:08:37;;;;;;;;;;;;;;;6.09;100.00;98044.66;4944216;28;19927;-90
2022/03/30 14:11:03;;;;;;;;;;;;;;;6.14;100.00;98042.63;4945333;28;19922;-89
2022/03/30 14:13:29;;;;;;;;;;;;;;;6.14;100.00;98040.84;4943718;29;20026;-90
2022/03/30 14:15:54;;;;;;;;;;;;;;;6.16;100.00;98040.78;4943919;29;19923;-91
2022/03/30 14:18:22;;;;;;;;;;;;;;;6.21;100.00;98032.63;4943263;28;19927;-90
2022/03/30 14:20:48;;;;;;;;;;;;;;;6.21;100.00;98033.50;4944652;29;19918;-87
2022/03/30 14:23:13;;;;;;;;;;;;;;;6.26;100.00;98035.88;4943189;29;19928;-89
2022/03/30 14:25:39;;;;;;;;;;;;;;;6.25;100.00;98034.16;4944821;29;19950;-86
2022/03/30 14:28:06;;;;;;;;;;;;;;;4.60;100.00;98027.41;4943655;29;19958;-91
2022/03/30 14:30:32;;;;;;;;;;;;;;;4.34;100.00;98023.34;4945117;29;19922;-84
2022/03/30 14:32:58;;;;;;;;;;;;;;;4.19;100.00;98027.50;4944139;29;19933;-85
2022/03/30 14:35:24;;;;;;;;;;;;;;;3.99;100.00;98013.53;4943587;29;20037;-85
2022/03/30 14:37:49;;;;;;;;;;;;;;;3.90;100.00;98013.09;4943559;29;19926;-86
2022/03/30 14:40:15;;;;;;;;;;;;;;;3.82;100.00;98011.66;4942928;29;19927;-86
2022/03/30 14:42:40;;;;;;;;;;;;;;;3.75;100.00;98006.72;4942865;29;19926;-85
2022/03/30 14:45:07;;;;;;;;;;;;;;;3.67;100.00;98009.72;4943070;29;19969;-86
2022/03/30 14:47:32;;;;;;;;;;;;;;;3.60;99.20;98003.03;4942976;29;20377;-87
2022/03/30 14:49:58;;;;;;;;;;;;;;;3.57;98.06;98009.22;4943022;29;19933;-85
2022/03/30 14:52:23;;;;;;;;;;;;;;;3.56;97.22;98010.16;4943329;29;19973;-87
2022/03/30 14:54:48;;;;;;;;;;;;;;;3.51;96.65;98006.03;4943161;29;19982;-87
2022/03/30 14:57:13;;;;;;;;;;;;;;;3.44;96.15;98003.66;4941819;29;19923;-89
2022/03/30 14:59:39;;;;;;;;;;;;;;;3.40;95.49;98004.72;4942023;28;19927;-87
2022/03/30 15:02:05;;;;;;;;;;;;;;;3.43;94.95;98007.22;4943003;29;19922;-87
2022/03/30 15:04:32;;;;;;;;;;;;;;;3.35;94.48;98000.59;4943308;29;19926;-87
2022/03/30 15:06:58;;;;;;;;;;;;;;;3.29;93.73;97996.47;4942656;29;20396;-87
2022/03/30 15:09:23;;;;;;;;;;;;;;;3.31;93.52;97996.41;4939325;29;19927;-85
2022/03/30 15:11:49;;;;;;;;;;;;;;;3.26;93.18;97989.59;4943441;28;19930;-86
2022/03/30 15:14:14;;;;;;;;;;;;;;;3.22;92.64;97988.03;4944179;29;19923;-87
2022/03/30 15:16:39;;;;;;;;;;;;;;;3.24;92.31;97986.19;4945402;28;19933;-88
2022/03/30 15:19:05;;;;;;;;;;;;;;;3.21;91.74;97985.47;4944224;29;19925;-87
2022/03/30 15:21:31;;;;;;;;;;;;;;;3.24;91.42;97980.13;4943253;29;19926;-89
2022/03/30 15:23:57;;;;;;;;;;;;;;;3.17;90.82;97981.28;4942974;29;20053;-87
2022/03/30 15:26:22;;;;;;;;;;;;;;;3.09;90.59;97977.22;4946477;28;20013;-88
2022/03/30 15:28:50;;;;;;;;;;;;;;;3.11;90.14;97984.13;4943596;28;19922;-87
2022/03/30 15:31:15;;;;;;;;;;;;;;;3.03;89.78;97974.84;4946436;28;20491;-89
2022/03/30 15:33:40;;;;;;;;;;;;;;;3.01;89.55;97976.66;4947516;28;20013;-87
2022/03/30 15:36:06;;;;;;;;;;;;;;;3.02;88.97;97975.75;4947738;29;19926;-87
2022/03/30 15:38:31;;;;;;;;;;;;;;;3.01;88.71;97976.66;4948753;28;19927;-87
2022/03/30 15:40:56;;;;;;;;;;;;;;;2.99;88.25;97972.41;4945189;29;20022;-87
2022/03/30 15:43:22;;;;;;;;;;;;;;;2.90;87.79;97973.63;4947835;28;20724;-87
2022/03/30 15:45:47;;;;;;;;;;;;;;;2.89;87.36;97961.47;4948009;29;19930;-87
2022/03/30 15:48:13;;;;;;;;;;;;;;;2.88;86.87;97959.78;4944767;28;19934;-87
2022/03/30 15:50:38;;;;;;;;;;;;;;;2.81;86.71;97960.91;4946035;28;19922;-87
2022/03/30 15:53:05;;;;;;;;;;;;;;;2.77;86.37;97954.97;4946058;28;19974;-88
2022/03/30 15:55:35;;;;;;;;;;;;;;;2.70;85.86;97964.00;4963116;28;19919;-89
2022/03/30 15:58:01;;;;;;;;;;;;;;;2.65;85.76;97963.28;4944159;29;19922;-92
2022/03/30 16:00:26;;;;;;;;;;;;;;;2.64;85.63;97962.47;4949272;29;19998;-87
2022/03/30 16:02:51;;;;;;;;;;;;;;;2.66;85.33;97954.56;4946702;28;19922;-89
2022/03/30 16:05:16;;;;;;;;;;;;;;;2.65;86.63;97964.16;4946100;29;19922;-92
2022/03/30 16:10:26;;;;;;;;;;;;;;;2.64;87.46;97953.78;4948952;29;19977;-91
2022/03/30 16:12:52;;;;;;;;;;;;;;;2.59;87.48;97953.94;4946921;28;19922;-90
2022/03/30 16:15:20;;;;;;;;;;;;;;;2.58;87.56;97947.00;4944881;29;19931;-89
2022/03/30 16:17:46;;;;;;;;;;;;;;;2.50;87.15;97951.69;4959042;28;19926;-88
2022/03/30 16:20:18;;;;;;;;;;;;;;;2.54;87.15;97953.28;4946761;29;20449;-89
2022/03/30 16:22:43;;;;;;;;;;;;;;;2.56;86.94;97955.84;4947377;28;19926;-85
2022/03/30 16:25:09;;;;;;;;;;;;;;;2.58;86.50;97951.41;4946021;28;20389;-89
2022/03/30 16:27:34;;;;;;;;;;;;;;;2.53;86.04;97962.88;4944061;28;20404;-87
2022/03/30 16:29:59;;;;;;;;;;;;;;;2.42;85.68;97962.44;4952396;28;19930;-89
2022/03/30 16:32:25;;;;;;;;;;;;;;;2.45;85.68;97956.25;4948467;28;19926;-88
2022/03/30 16:34:51;;;;;;;;;;;;;;;2.39;85.32;97964.34;4948756;28;20405;-87
2022/03/30 16:37:16;;;;;;;;;;;;;;;2.36;84.89;97963.56;4945315;29;20023;-87
2022/03/30 16:39:42;;;;;;;;;;;;;;;2.32;84.63;97961.94;4962562;28;20306;-87
2022/03/30 16:42:08;;;;;;;;;;;;;;;2.36;84.35;97957.44;4945439;28;19930;-88
2022/03/30 16:44:33;;;;;;;;;;;;;;;2.33;84.04;97958.44;4940828;29;19922;-90
2022/03/30 16:46:58;;;;;;;;;;;;;;;2.34;83.75;97959.28;4945038;29;19923;-88
2022/03/30 16:49:27;;;;;;;;;;;;;;;2.28;83.56;97951.66;4945671;29;19925;-89
2022/03/30 16:51:53;;;;;;;;;;;;;;;2.22;83.36;97955.38;4946842;28;19977;-88
2022/03/30 16:54:18;;;;;;;;;;;;;;;2.19;83.30;97952.88;4949470;28;20318;-87
2022/03/30 16:56:44;;;;;;;;;;;;;;;2.19;83.14;97950.28;4947876;29;20046;-89
2022/03/30 16:59:09;;;;;;;;;;;;;;;2.19;83.02;97955.50;4945247;29;20400;-88
2022/03/30 17:01:35;;;;;;;;;;;;;;;2.13;82.76;97956.56;4949963;28;20005;-88
2022/03/30 17:04:01;;;;;;;;;;;;;;;2.14;82.63;97965.28;4952289;29;20432;-87
2022/03/30 17:06:26;;;;;;;;;;;;;;;2.10;82.64;97966.28;4947728;28;20013;-89
2022/03/30 17:11:36;;;;;;;;;;;;;;;2.16;82.67;97971.28;4945643;28;19945;-91
2022/03/30 17:14:03;;;;;;;;;;;;;;;2.09;82.45;97968.06;4942585;29;20732;-89
2022/03/30 17:16:28;;;;;;;;;;;;;;;2.12;82.65;97970.56;4945708;28;19927;-87
2022/03/30 17:18:53;;;;;;;;;;;;;;;2.16;82.70;97971.28;4944608;29;19973;-88
2022/03/30 17:21:19;;;;;;;;;;;;;;;2.08;82.64;97973.34;4944761;29;19923;-89
2022/03/30 17:23:44;;;;;;;;;;;;;;;2.06;82.60;97970.78;4944663;29;19926;-88
2022/03/30 17:26:10;;;;;;;;;;;;;;;2.11;82.87;97978.47;4944416;29;20005;-88
2022/03/30 17:28:35;;;;;;;;;;;;;;;2.07;82.57;97971.63;4944552;28;20354;-88
2022/03/30 17:31:01;;;;;;;;;;;;;;;2.05;82.41;97979.53;4941008;29;19922;-89
2022/03/30 17:33:26;;;;;;;;;;;;;;;2.06;82.56;97972.53;4943840;28;20509;-88
2022/03/30 17:35:51;;;;;;;;;;;;;;;2.06;82.36;97978.63;4944918;29;20001;-86
2022/03/30 17:38:18;;;;;;;;;;;;;;;2.06;82.46;97975.16;4959918;28;20386;-86
2022/03/30 17:40:43;;;;;;;;;;;;;;;2.01;82.45;97977.97;4959994;28;19957;-86
2022/03/30 17:43:08;;;;;;;;;;;;;;;1.96;82.14;97975.50;4942962;29;20064;-88
2022/03/30 17:45:34;;;;;;;;;;;;;;;1.98;82.14;97973.69;4941990;29;19922;-88
2022/03/30 17:53:30;;;;;;;;;;;;;;;1.97;82.26;97971.97;4945776;28;19925;-88
2022/03/30 17:55:56;;;;;;;;;;;;;;;1.97;82.20;97969.34;4943577;29;19922;-88
2022/03/30 17:58:23;;;;;;;;;;;;;;;1.93;82.08;97965.16;4943935;28;20389;-89
2022/03/30 18:00:49;;;;;;;;;;;;;;;1.96;81.79;97965.06;4959570;28;19923;-89
2022/03/30 18:03:15;;;;;;;;;;;;;;;1.99;81.70;97964.94;4948324;28;19919;-86
2022/03/30 18:05:40;;;;;;;;;;;;;;;1.91;81.50;97963.50;4942393;28;20286;-88
2022/03/30 18:08:05;;;;;;;;;;;;;;;1.94;81.59;97976.47;4944969;28;20038;-87
2022/03/30 18:10:31;;;;;;;;;;;;;;;1.95;81.52;97968.56;4943926;29;19929;-88
2022/03/30 18:12:56;;;;;;;;;;;;;;;1.95;81.55;97972.94;4941066;29;19937;-87
2022/03/30 18:15:21;;;;;;;;;;;;;;;1.93;81.24;97967.78;4943587;29;19956;-88
2022/03/30 18:17:47;;;;;;;;;;;;;;;1.96;81.10;97978.13;4942632;29;19929;-87
2022/03/30 18:20:14;;;;;;;;;;;;;;;1.95;81.05;97978.19;4947018;28;19993;-88
2022/03/30 18:22:44;;;;;;;;;;;;;;;1.91;80.89;97980.03;4945595;29;19927;-87
2022/03/30 18:25:09;;;;;;;;;;;;;;;1.92;80.84;97979.13;4944977;29;19922;-86
2022/03/30 18:27:35;;;;;;;;;;;;;;;1.87;80.39;97975.84;4943803;29;20386;-86
2022/03/30 18:30:01;;;;;;;;;;;;;;;1.88;80.15;97968.84;4944764;29;19918;-87
2022/03/30 18:32:26;;;;;;;;;;;;;;;1.85;80.18;97977.66;4944259;28;19922;-86
2022/03/30 18:34:51;;;;;;;;;;;;;;;1.86;80.08;97973.28;4943620;29;19946;-90
2022/03/30 18:37:19;;;;;;;;;;;;;;;1.89;80.04;97974.00;4938869;29;19922;-88
2022/03/30 18:39:44;;;;;;;;;;;;;;;1.85;79.98;97972.44;4960755;28;19934;-88
2022/03/30 18:42:10;;;;;;;;;;;;;;;1.87;79.98;97969.75;4942007;29;19922;-87
2022/03/30 18:44:35;;;;;;;;;;;;;;;2.11;81.84;97973.25;4945645;29;19931;-89
2022/03/30 18:47:00;;;;;;;;;;;;;;;2.19;83.02;97971.19;4942230;29;19933;-90
2022/03/30 18:49:26;;;;;;;;;;;;;;;2.20;84.68;97967.63;4943613;29;20670;-89
2022/03/30 18:51:52;;;;;;;;;;;;;;;2.15;86.15;97974.81;4943444;29;20297;-89
2022/03/30 18:54:18;;;;;;;;;;;;;;;1.98;88.94;97981.53;4941804;29;20422;-87
2022/03/30 18:56:43;;;;;;;;;;;;;;;2.05;91.97;97973.47;4943188;28;19930;-87
2022/03/30 18:59:10;;;;;;;;;;;;;;;2.21;94.75;97978.97;4941805;29;19927;-88
2022/03/30 19:01:35;;;;;;;;;;;;;;;2.35;97.07;97969.69;4942298;28;20326;-89
2022/03/30 19:04:00;;;;;;;;;;;;;;;2.40;98.84;97971.28;4945255;28;19923;-88
2022/03/30 19:06:27;;;;;;;;;;;;;;;2.48;100.00;97971.81;4945130;28;19953;-89
2022/03/30 19:08:52;;;;;;;;;;;;;;;2.55;100.00;97975.88;4942671;29;20005;-88
2022/03/30 19:11:21;;;;;;;;;;;;;;;2.59;100.00;97974.88;4945194;28;19966;-89
2022/03/30 19:13:46;;;;;;;;;;;;;;;2.61;100.00;97967.81;4944180;28;19926;-90
2022/03/30 19:16:11;;;;;;;;;;;;;;;2.61;100.00;97978.25;4943524;29;20005;-88
2022/03/30 19:18:38;;;;;;;;;;;;;;;2.66;100.00;97975.47;4939608;29;19926;-87
2022/03/30 19:21:04;;;;;;;;;;;;;;;2.72;100.00;97973.47;4942321;29;19931;-88
2022/03/30 19:23:30;;;;;;;;;;;;;;;2.74;100.00;97976.00;4942833;29;19926;-89
2022/03/30 19:25:56;;;;;;;;;;;;;;;2.83;100.00;97982.66;4943225;29;19922;-88
2022/03/30 19:28:22;;;;;;;;;;;;;;;2.81;100.00;97976.63;4942420;29;19937;-88
2022/03/30 19:30:48;;;;;;;;;;;;;;;2.87;100.00;97979.84;4943531;29;19930;-87
2022/03/30 19:33:15;;;;;;;;;;;;;;;2.95;100.00;97981.28;4944404;28;19926;-88
2022/03/30 19:35:40;;;;;;;;;;;;;;;2.94;100.00;97983.06;4943219;29;20297;-88